sensor_id;sensor_type;location;lat;lon;timestamp;pressure;altitude;pressure_sealevel;temperature;humidity
43691;BME280;29293;52.190;21.226;2023-08-30T00:14:25;99141.55;;;19.11;100.00
43691;BME280;29293;52.190;21.226;2023-08-30T00:29:32;99167.52;;;19.05;100.00
43691;BME280;29293;52.190;21.226;2023-08-30T00:44:40;99191.88;;;18.99;100.00
43691;BME280;29293;52.190;21.226;2023-08-30T00:59:47;99179.92;;;18.91;100.00
43691;BME280;29293;52.190;21.226;2023-08-30T01:15:00;99228.35;;;18.90;100.00
43691;BME280;29293;52.190;21.226;2023-08-30T01:30:12;99255.30;;;18.91;100.00
43691;BME280;29293;52.190;21.226;2023-08-30T01:45:21;99243.30;;;18.88;100.00
43691;BME280;29293;52.190;21.226;2023-08-30T02:00:30;99244.86;;;18.86;100.00
43691;BME280;29293;52.190;21.226;2023-08-30T02:15:37;99218.54;;;18.77;100.00
43691;BME280;29293;52.190;21.226;2023-08-30T02:30:46;99179.59;;;18.61;100.00
43691;BME280;29293;52.190;21.226;2023-08-30T02:45:53;99152.23;;;18.47;100.00
43691;BME280;29293;52.190;21.226;2023-08-30T03:01:01;99151.73;;;18.28;100.00
43691;BME280;29293;52.190;21.226;2023-08-30T03:16:15;99147.16;;;18.09;100.00
43691;BME280;29293;52.190;21.226;2023-08-30T03:31:22;99124.13;;;17.81;100.00
43691;BME280;29293;52.190;21.226;2023-08-30T03:46:31;99132.10;;;17.60;100.00
43691;BME280;29293;52.190;21.226;2023-08-30T04:01:38;99150.73;;;17.43;100.00
43691;BME280;29293;52.190;21.226;2023-08-30T04:16:45;99142.00;;;17.33;100.00
43691;BME280;29293;52.190;21.226;2023-08-30T04:31:52;99135.60;;;17.29;100.00
43691;BME280;29293;52.190;21.226;2023-08-30T04:47:00;99148.02;;;17.28;100.00
43691;BME280;29293;52.190;21.226;2023-08-30T05:02:07;99164.88;;;17.36;100.00
43691;BME280;29293;52.190;21.226;2023-08-30T05:17:14;99190.98;;;17.46;100.00
43691;BME280;29293;52.190;21.226;2023-08-30T05:32:21;99232.77;;;17.59;100.00
43691;BME280;29293;52.190;21.226;2023-08-30T05:47:28;99238.16;;;17.63;100.00
43691;BME280;29293;52.190;21.226;2023-08-30T06:02:36;99244.17;;;17.58;100.00
43691;BME280;29293;52.190;21.226;2023-08-30T06:17:43;99229.38;;;17.53;100.00
43691;BME280;29293;52.190;21.226;2023-08-30T06:32:50;99235.93;;;17.61;100.00
43691;BME280;29293;52.190;21.226;2023-08-30T06:47:57;99247.61;;;17.58;100.00
43691;BME280;29293;52.190;21.226;2023-08-30T07:03:04;99249.57;;;17.53;100.00
43691;BME280;29293;52.190;21.226;2023-08-30T07:18:12;99250.98;;;17.52;100.00
43691;BME280;29293;52.190;21.226;2023-08-30T07:33:19;99252.02;;;17.52;100.00
43691;BME280;29293;52.190;21.226;2023-08-30T07:48:26;99241.31;;;17.51;100.00
43691;BME280;29293;52.190;21.226;2023-08-30T08:03:33;99227.56;;;17.46;100.00
43691;BME280;29293;52.190;21.226;2023-08-30T08:18:40;99212.70;;;17.35;100.00
43691;BME280;29293;52.190;21.226;2023-08-30T08:33:50;99213.73;;;17.35;100.00
43691;BME280;29293;52.190;21.226;2023-08-30T08:49:05;99208.11;;;17.38;100.00
43691;BME280;29293;52.190;21.226;2023-08-30T09:04:16;99220.37;;;17.35;100.00
43691;BME280;29293;52.190;21.226;2023-08-30T09:19:23;99223.89;;;17.33;100.00
43691;BME280;29293;52.190;21.226;2023-08-30T09:34:33;99221.02;;;17.32;100.00
43691;BME280;29293;52.190;21.226;2023-08-30T09:49:51;99218.09;;;17.33;100.00
43691;BME280;29293;52.190;21.226;2023-08-30T10:05:05;99228.27;;;17.26;100.00
43691;BME280;29293;52.190;21.226;2023-08-30T10:20:12;99238.12;;;17.09;100.00
43691;BME280;29293;52.190;21.226;2023-08-30T10:35:20;99211.20;;;16.93;100.00
43691;BME280;29293;52.190;21.226;2023-08-30T10:50:31;99225.41;;;16.91;100.00
43691;BME280;29293;52.190;21.226;2023-08-30T11:05:41;99226.55;;;17.22;100.00
43691;BME280;29293;52.190;21.226;2023-08-30T11:37:19;99224.83;;;17.56;100.00
43691;BME280;29293;52.190;21.226;2023-08-30T11:52:27;99233.29;;;17.63;100.00
43691;BME280;29293;52.190;21.226;2023-08-30T12:07:38;99242.36;;;17.62;100.00
43691;BME280;29293;52.190;21.226;2023-08-30T12:22:47;99256.02;;;17.61;100.00
43691;BME280;29293;52.190;21.226;2023-08-30T12:37:56;99251.02;;;17.51;100.00
43691;BME280;29293;52.190;21.226;2023-08-30T12:53:04;99241.83;;;17.49;100.00
43691;BME280;29293;52.190;21.226;2023-08-30T13:08:11;99259.58;;;17.64;100.00
43691;BME280;29293;52.190;21.226;2023-08-30T13:23:18;99243.09;;;17.76;100.00
43691;BME280;29293;52.190;21.226;2023-08-30T13:38:25;99232.79;;;17.79;100.00
43691;BME280;29293;52.190;21.226;2023-08-30T13:53:32;99232.81;;;18.03;100.00
43691;BME280;29293;52.190;21.226;2023-08-30T14:08:39;99227.05;;;18.19;100.00
43691;BME280;29293;52.190;21.226;2023-08-30T14:23:49;99232.85;;;18.10;100.00
43691;BME280;29293;52.190;21.226;2023-08-30T14:38:56;99242.31;;;18.11;100.00
43691;BME280;29293;52.190;21.226;2023-08-30T14:54:03;99265.14;;;18.11;100.00
43691;BME280;29293;52.190;21.226;2023-08-30T15:09:11;99277.05;;;18.09;100.00
43691;BME280;29293;52.190;21.226;2023-08-30T15:24:21;99296.42;;;18.09;100.00
43691;BME280;29293;52.190;21.226;2023-08-30T15:39:28;99295.59;;;18.08;100.00
43691;BME280;29293;52.190;21.226;2023-08-30T15:54:35;99296.98;;;18.03;100.00
43691;BME280;29293;52.190;21.226;2023-08-30T16:09:43;99294.41;;;18.00;100.00
43691;BME280;29293;52.190;21.226;2023-08-30T16:24:53;99297.00;;;17.87;100.00
43691;BME280;29293;52.190;21.226;2023-08-30T16:40:00;99302.59;;;17.74;100.00
43691;BME280;29293;52.190;21.226;2023-08-30T16:55:08;99306.70;;;17.60;100.00
43691;BME280;29293;52.190;21.226;2023-08-30T17:10:16;99312.03;;;17.45;100.00
43691;BME280;29293;52.190;21.226;2023-08-30T17:25:23;99293.55;;;17.29;100.00
43691;BME280;29293;52.190;21.226;2023-08-30T17:40:31;99269.88;;;17.13;100.00
43691;BME280;29293;52.190;21.226;2023-08-30T17:55:39;99272.73;;;16.96;100.00
43691;BME280;29293;52.190;21.226;2023-08-30T18:10:46;99285.34;;;16.84;100.00
43691;BME280;29293;52.190;21.226;2023-08-30T18:25:53;99289.52;;;16.82;100.00
43691;BME280;29293;52.190;21.226;2023-08-30T18:41:02;99288.27;;;16.77;100.00
43691;BME280;29293;52.190;21.226;2023-08-30T18:56:10;99292.33;;;16.74;100.00
43691;BME280;29293;52.190;21.226;2023-08-30T19:11:17;99313.00;;;16.71;100.00
43691;BME280;29293;52.190;21.226;2023-08-30T19:26:24;99321.05;;;16.69;100.00
43691;BME280;29293;52.190;21.226;2023-08-30T19:41:34;99353.46;;;16.62;100.00
43691;BME280;29293;52.190;21.226;2023-08-30T19:56:46;99371.17;;;16.58;100.00
43691;BME280;29293;52.190;21.226;2023-08-30T20:11:57;99370.95;;;16.56;100.00
43691;BME280;29293;52.190;21.226;2023-08-30T20:27:04;99380.91;;;16.53;100.00
43691;BME280;29293;52.190;21.226;2023-08-30T20:42:11;99378.67;;;16.48;100.00
43691;BME280;29293;52.190;21.226;2023-08-30T20:57:19;99392.04;;;16.43;100.00
43691;BME280;29293;52.190;21.226;2023-08-30T21:12:26;99390.18;;;16.39;100.00
43691;BME280;29293;52.190;21.226;2023-08-30T21:27:33;99398.88;;;16.35;100.00
43691;BME280;29293;52.190;21.226;2023-08-30T21:42:40;99396.44;;;16.32;100.00
43691;BME280;29293;52.190;21.226;2023-08-30T21:57:47;99389.18;;;16.29;100.00
43691;BME280;29293;52.190;21.226;2023-08-30T22:12:54;99388.09;;;16.29;100.00
43691;BME280;29293;52.190;21.226;2023-08-30T22:28:04;99390.97;;;16.28;100.00
43691;BME280;29293;52.190;21.226;2023-08-30T22:43:11;99401.40;;;16.26;100.00
43691;BME280;29293;52.190;21.226;2023-08-30T22:58:18;99406.55;;;16.25;100.00
43691;BME280;29293;52.190;21.226;2023-08-30T23:13:25;99406.23;;;16.20;100.00
43691;BME280;29293;52.190;21.226;2023-08-30T23:28:32;99402.85;;;16.16;100.00
43691;BME280;29293;52.190;21.226;2023-08-30T23:43:39;99410.38;;;16.13;100.00
43691;BME280;29293;52.190;21.226;2023-08-30T23:58:46;99404.52;;;16.08;100.00
